• Join FlightAware (Why Join?)
  • Login
  • US Flag 
05:24PM EST


 

Airport Tracker/Info


-or-


 

Live Flight TrackerFlight Track Log ✈ SWA268 ✈ 04-Apr-2013 ✈ KLAS - KABQ

Flight Track Log - Related Links

Times and Time Zones

All times are in EDT time to prevent confusion due to time zone crossing. See the SWA268 flight status page for this flight to view local times or setup timezone preferences in your user account.

Time Position Orientation Groundspeed Altitude Reporting Facility
EDT Latitude Longitude Course Direction KTS MPH feet Rate Location/Type
02:00PM 36.0753 -115.1739 271° West 167 192 3,300  Level Los Angeles Center
02:01PM 36.0758 -115.2161 271° West 182 209 4,600 1,800 Climbing Los Angeles Center
02:02PM 36.0356 -115.2708 228° Southwest 222 255 6,500 2,760 Climbing Los Angeles Center
02:03PM 35.9661 -115.2994 198° South 248 285 10,400 2,820 Climbing Los Angeles Center
02:04PM 35.9228 -115.2372 131° Southeast 336 387 11,900 2,760 Climbing Los Angeles Center
02:05PM 35.9233 -115.0858 90° East 350 403 16,200 3,240 Climbing Los Angeles Center
02:06PM 35.9242 -114.9561 90° East 368 423 19,200 2,640 Climbing Los Angeles Center
02:07PM 35.9233 -114.8164 90° East 396 456 21,700 2,280 Climbing Los Angeles Center
02:08PM 35.9225 -114.6708 90° East 418 481 24,000 2,280 Climbing Los Angeles Center
02:09PM 35.8986 -114.4914 99° East 439 505 26,500 2,160 Climbing Los Angeles Center
02:10PM 35.8753 -114.3383 101° East 450 518 28,600 1,860 Climbing Los Angeles Center
02:11PM 35.8608 -114.1803 96° East 458 527 30,400 1,620 Climbing Los Angeles Center
02:12PM 35.8553 -114.0167 92° East 469 540 32,000 1,680 Climbing Los Angeles Center
02:13PM 35.8481 -113.8528 93° East 477 549 33,900 1,680 Climbing Los Angeles Center
02:14PM 35.8369 -113.6569 94° East 477 549 35,500 1,320 Climbing Los Angeles Center
02:15PM 35.8286 -113.5175 94° East 482 555 36,700 720 Climbing Los Angeles Center
02:16PM 35.8178 -113.3192 94° East 485 558 37,000 120 Climbing Los Angeles Center
02:17PM 35.8081 -113.1539 94° East 483 556 37,000 480 Level Los Angeles Center
02:18PM 35.7981 -112.9894 94° East 481 554 38,000 960 Climbing Los Angeles Center
02:19PM 35.7881 -112.8272 94° East 475 547 39,000 480 Climbing Los Angeles Center
02:21PM 35.7786 -112.6636 94° East 477 549 39,000  Level Los Angeles Center
02:22PM 35.7672 -112.5008 95° East 477 549 39,000  Level Los Angeles Center
02:23PM 35.7550 -112.3061 94° East 476 548 39,000  Level Los Angeles Center
02:24PM 35.7442 -112.1439 95° East 478 550 39,000  Level Los Angeles Center
02:25PM 35.7331 -111.9828 95° East 475 547 39,000  Level Los Angeles Center
02:26PM 35.7203 -111.8197 95° East 480 552 39,000  Level Los Angeles Center
02:27PM 35.7094 -111.6572 95° East 479 551 39,000  Level Los Angeles Center
02:28PM 35.6989 -111.5269 96° East 479 551 39,000  Level Albuquerque Center
02:29PM 35.6858 -111.3386 95° East 478 550 39,000  Level Albuquerque Center
02:30PM 35.6733 -111.1811 96° East 483 556 39,000  Level Albuquerque Center
02:31PM 35.6581 -110.9975 96° East 484 557 39,000 -120 Level Albuquerque Center
02:32PM 35.6469 -110.8392 95° East 486 559 38,800 -660 Descending Albuquerque Center
02:33PM 35.6308 -110.6539 96° East 488 562 37,700 -900 Descending Albuquerque Center
02:34PM 35.6183 -110.4972 96° East 485 558 37,000 -360 Descending Albuquerque Center
02:35PM 35.6056 -110.3417 96° East 481 554 37,000  Level Albuquerque Center
02:36PM 35.5906 -110.1597 96° East 481 554 37,000  Level Albuquerque Center
02:37PM 35.5769 -110.0039 96° East 480 552 37,000  Level Albuquerque Center
02:38PM 35.5625 -109.8233 96° East 479 551 37,000  Level Albuquerque Center
02:39PM 35.5497 -109.6669 96° East 480 552 37,000  Level Albuquerque Center
02:40PM 35.5328 -109.4861 97° East 480 552 37,000 -60 Level Albuquerque Center
02:41PM 35.5183 -109.3281 96° East 485 558 36,900 -1,080 Descending Albuquerque Center
02:42PM 35.5022 -109.1458 96° East 484 557 34,800 -1,500 Descending Albuquerque Center
02:43PM 35.4872 -108.9947 97° East 475 547 33,800 -900 Descending Albuquerque Center
02:44PM 35.4761 -108.8231 94° East 460 529 33,000 -420 Descending Albuquerque Center
02:45PM 35.4811 -108.6775 88° East 451 519 33,000  Level Albuquerque Center
02:46PM 35.4858 -108.5036 88° East 456 525 33,000 -1,080 Level Albuquerque Center
02:47PM 35.4883 -108.3556 89° East 456 525 30,800 -2,280 Descending Albuquerque Center
02:48PM 35.4781 -108.1861 94° East 450 518 28,300 -2,220 Descending Albuquerque Center
02:49PM 35.4681 -108.0450 95° East 440 506 26,300 -2,160 Descending Albuquerque Center
02:50PM 35.4581 -107.8856 94° East 426 490 23,900 -2,100 Descending Albuquerque Center
02:51PM 35.4489 -107.7539 95° East 414 476 22,000 -2,040 Descending Albuquerque Center
02:52PM 35.4383 -107.6047 95° East 398 458 19,800 -2,040 Descending Albuquerque Center
02:53PM 35.4311 -107.4822 94° East 384 442 17,900 -1,920 Descending Albuquerque Center
02:54PM 35.4192 -107.3669 97° East 370 426 16,200 -1,620 Descending Albuquerque Center
02:55PM 35.3664 -107.2533 120° Southeast 363 418 14,700 -1,320 Descending Albuquerque Center
02:56PM 35.3178 -107.1583 122° Southeast 336 387 13,300 -1,620 Descending Albuquerque Center
02:57PM 35.2689 -107.0825 128° Southeast 315 362 11,900 -1,500 Descending Albuquerque Center
02:57PM 35.2625 -107.0775 147° Southeast 319 367 11,800 -1,200 Descending Albuquerque Center
02:58PM 35.1939 -107.0286 150° Southeast 306 352 10,700 -1,500 Descending Albuquerque Center
02:58PM 35.1747 -107.0153 150° Southeast 307 353 10,300 -1,380 Descending Albuquerque Center
02:59PM 35.1233 -106.9792 150° Southeast 294 338 9,300 -1,380 Descending Albuquerque Center
03:00PM 35.1050 -106.9656 149° Southeast 300 345 8,900 -900 Descending Albuquerque Center
03:00PM 35.0658 -106.9158 134° Southeast 278 320 8,400 -720 Descending Albuquerque Center
03:01PM 35.0547 -106.8989 129° Southeast 286 329 8,200 -420 Descending Albuquerque Center
03:01PM 35.0458 -106.8381 100° East 239 275 8,000 -240 Descending Albuquerque Center
03:02PM 35.0447 -106.8064 92° East 256 295 8,000 -540 Level Albuquerque Center
03:02PM 35.0456 -106.7628 89° East 210 242 7,500 -780 Descending Albuquerque Center
03:03PM 35.0447 -106.7347 92° East 232 267 7,200 -900 Descending Albuquerque Center
03:03PM 35.0447 -106.6958 90° East 175 201 6,600 -900 Descending Albuquerque Center
03:04PM 35.0444 -106.6783 91° East 197 227 6,300 -840 Descending Albuquerque Center
03:04PM 35.0442 -106.6439 91° East 149 171 5,800 -780 Descending Albuquerque Center
03:05PM 35.0444 -106.6256 89° East 171 197 5,500 -720 Descending Albuquerque Center
03:07PM 35.0402 -106.6092 90° East  Level Estimated